Time;durP1;ratioP1;P1;durP2;ratioP2;P2;SDS_P1;SDS_P2;PMS_P1;PMS_P2;Temp;Humidity;BMP_temperature;BMP_pressure;BME280_temperature;BME280_humidity;BME280_pressure;Samples;Min_cycle;Max_cycle;Signal;HPM_P1;HPM_P2
2023/02/03 02:46:24;;;;;;;;;;;-0.30;99.90;;;;;;5113286;27;19912;-96
2023/02/03 02:49:12;;;;;;;;;;;-0.30;99.90;;;;;;5128359;28;19912;-96
2023/02/03 02:51:47;;;;;;;;;;;-0.30;99.90;;;;;;5133300;28;19892;-96
2023/02/03 03:03:31;;;;;;;;;;;0.20;99.90;;;;;;5074481;28;20394;-95
2023/02/03 03:06:01;;;;;;;;;;;0.20;99.90;;;;;;5054385;28;19960;-95
2023/02/03 03:08:33;;;;;;;;;;;0.30;99.90;;;;;;5056535;28;20253;-95
2023/02/03 03:11:00;;;;;;;;;;;0.40;99.90;;;;;;5054936;28;19916;-96
2023/02/03 03:13:29;;;;;;;;;;;0.50;99.90;;;;;;5053822;28;19916;-95
2023/02/03 03:15:55;;;;;;;;;;;0.60;99.90;;;;;;5053587;28;20349;-92
2023/02/03 03:18:24;;;;;;;;;;;0.70;99.90;;;;;;5053002;28;19916;-92
2023/02/03 03:20:50;;;;;;;;;;;0.80;99.90;;;;;;5053276;28;20381;-93
2023/02/03 03:23:22;;;;;;;;;;;0.80;99.90;;;;;;5052991;28;19909;-94
2023/02/03 03:25:59;;;;;;;;;;;0.90;99.90;;;;;;5052958;28;19991;-92
2023/02/03 20:43:16;;;;;;;;;;;-3.20;99.90;;;;;;5072240;28;20373;-94
2023/02/03 20:45:42;;;;;;;;;;;-3.10;99.90;;;;;;5054656;28;19986;-96
2023/02/03 20:48:11;;;;;;;;;;;-3.10;99.90;;;;;;5058260;28;20381;-96
2023/02/03 20:50:37;;;;;;;;;;;-3.00;99.90;;;;;;5057840;28;19955;-95
2023/02/03 20:53:06;;;;;;;;;;;-2.90;99.90;;;;;;5057694;28;19915;-96
2023/02/03 20:55:35;;;;;;;;;;;-2.80;99.90;;;;;;5056654;28;19912;-96
2023/02/03 20:58:01;;;;;;;;;;;-2.70;99.90;;;;;;5055250;28;19909;-96
2023/02/03 21:00:27;;;;;;;;;;;-2.60;99.90;;;;;;5056049;28;19920;-96
2023/02/03 21:05:38;;;;;;;;;;;-2.50;99.90;;;;;;5072885;28;19979;-96
2023/02/03 21:08:14;;;;;;;;;;;-2.40;99.90;;;;;;5054799;28;20062;-94
2023/02/03 21:10:40;;;;;;;;;;;-2.40;99.90;;;;;;5053354;28;19909;-94
2023/02/03 21:13:20;;;;;;;;;;;-2.30;99.90;;;;;;5053356;28;19912;-94
2023/02/03 21:15:47;;;;;;;;;;;-2.30;99.90;;;;;;5053198;28;20369;-94
2023/02/03 21:18:26;;;;;;;;;;;-2.30;99.90;;;;;;5055108;28;19916;-96
2023/02/03 21:20:51;;;;;;;;;;;-2.30;99.90;;;;;;5053539;28;19915;-94
2023/02/03 21:23:17;;;;;;;;;;;-2.30;99.90;;;;;;5053380;28;19936;-94
2023/02/03 21:25:43;;;;;;;;;;;-2.20;99.90;;;;;;5054974;28;19952;-95
2023/02/03 21:28:20;;;;;;;;;;;-2.20;99.90;;;;;;5054894;28;19913;-95
2023/02/03 21:30:45;;;;;;;;;;;-2.30;99.90;;;;;;5053782;28;19908;-95
2023/02/03 21:33:26;;;;;;;;;;;-2.30;99.90;;;;;;5053644;28;19912;-94
2023/02/03 21:35:51;;;;;;;;;;;-2.30;99.90;;;;;;5053733;28;19916;-93
2023/02/03 21:38:31;;;;;;;;;;;-2.20;99.90;;;;;;5053519;28;19909;-95
2023/02/03 21:40:57;;;;;;;;;;;-2.30;99.90;;;;;;5053140;28;19916;-94
2023/02/03 21:43:25;;;;;;;;;;;-2.30;99.90;;;;;;5053432;28;19919;-92
2023/02/03 21:45:51;;;;;;;;;;;-2.30;99.90;;;;;;5053039;28;19916;-92
2023/02/03 21:48:27;;;;;;;;;;;-2.40;99.90;;;;;;5053985;28;19912;-92
2023/02/03 21:50:54;;;;;;;;;;;-2.40;99.90;;;;;;5052987;28;19963;-93
2023/02/03 21:53:25;;;;;;;;;;;-2.50;99.90;;;;;;5046968;28;19915;-92
2023/02/03 21:55:50;;;;;;;;;;;-2.50;99.90;;;;;;5039382;28;20268;-92
2023/02/03 21:58:29;;;;;;;;;;;-2.60;99.90;;;;;;5039457;28;19913;-93
2023/02/03 22:00:55;;;;;;;;;;;-2.60;99.90;;;;;;5040190;28;19915;-93
